Air Navigation Services of Czech Republic  
Last data update:  21.11.2019 18:30:27 UTC Česká verze
   METEO Page displayed:  21.11.2019 18:30:57 UTC  
help
METAR EDDB 211820Z 10005KT 3000 -RA BR SCT004 BKN005 09/09 Q1009 TEMPO 2500 -RA BR BKN004=
METAR EDDC 211820Z 09005KT 3000 BR FEW018 SCT043 08/08 Q1008 TEMPO 2500 -RA BR=
METAR EDDE 211820Z VRB02KT 0100 R28/0500N -RADZ FG VV/// 05/05 Q1008 NOSIG=
METAR EDDF 211820Z 17002KT 9999 -RA NSC 04/02 Q1009 NOSIG=
METAR EDDM 211820Z VRB02KT 4500 BR OVC004 04/03 Q1009 TEMPO 5000=
METAR EDDN 211820Z 22003KT 180V240 9000 BKN010 06/03 Q1009 TEMPO BKN009=
METAR EDDP 211820Z 29004KT 0300 R26L/0700N R26R/0650N -RADZ FG NSC 07/07 Q1009 TEMPO 0100 FG=
METAR EDDT 211820Z 11006KT 5000 -RADZ BR OVC008 09/09 Q1009 TEMPO 5000 -RA BR=
METAR EDQM 211820Z 23004KT 3600 -DZ BKN002 OVC005 05/05 Q1008 REDZ=
METAR EPBY 211800Z 11016KT 090V150 8000 -RA SCT006 OVC007 07/06 Q1015 =
METAR EPGD 211800Z 12019KT 9999 OVC009 05/04 Q1017=
METAR EPKK 211800Z 04008KT 9999 BKN050 09/07 Q1014=
METAR EPKT 211800Z 12010KT 9999 SCT041 BKN046 09/07 Q1014=
METAR EPLL 211800Z 10012KT 9999 SCT007 OVC008 07/06 Q1015=
METAR EPPO 211800Z 11012KT 6000 -RA BKN005 09/09 Q1011=
METAR EPRZ 211800Z 10018KT 9999 OVC006 05/04 Q1019=
METAR EPWA 211800Z 12020KT 9999 OVC014 05/03 Q1018 NOSIG=
METAR EPWR 211800Z 15011KT 7000 FEW006 BKN034 10/09 Q1011=
METAR LHBP 211800Z 09006KT CAVOK 11/09 Q1015 NOSIG=
METAR LHSM 211745Z AUTO VRB02KT CAVOK 10/07 Q1014=
METAR LKBC 211830Z AUTO 13005KT 9999 BKN012 07/06 Q1009=
METAR LKCV 211800Z 14012KT 9999 SCT017 BKN090 09/07 Q1009 TEMPO BKN017 RMK BLU WHT=
METAR LKKB 211800Z 13006KT 9999 SCT021 BKN030 09/08 Q1008 NOSIG RMK BLU BLU=
METAR LKKU NIL
METAR LKKV 211830Z 26002KT 2400 -RA BR OVC002 06/06 Q1008 RMK REG QNH 1006=
METAR LKLN 211830Z AUTO 21006KT 9999 -RA ///////// 06/06 Q1009=
METAR LKMT 211830Z 17009KT CAVOK 11/06 Q1012 NOSIG RMK REG QNH 1006=
METAR LKNA 211800Z 13011KT 4000 BR OVC003 07/06 Q1010 NOSIG RMK YLO YLO=
METAR LKPD 211800Z 14010KT 9999 OVC020 10/06 Q1010 NOSIG RMK WHT WHT=
METAR LKPJ 211800Z AUTO 11007KT 9999 OVC020 ///// Q////=
METAR LKPR 211830Z 16007KT 9999 -RA FEW008 SCT018 OVC028 08/07 Q1008 NOSIG RMK REG QNH 1006=
METAR LKTB 211830Z 09006KT 9999 OVC022 09/08 Q1011 NOSIG RMK REG QNH 1006=
METAR LKVO NIL
METAR LOWI 211820Z 28005KT 9999 FEW060 03/01 Q1009 NOSIG=
METAR LOWL 211820Z AUTO 15003KT 120V180 9999 BKN006 05/04 Q1010 BECMG 4500 BKN005=
METAR LOWS 211820Z VRB02KT 6000 FEW004 BKN007 05/04 Q1010 TEMPO 4000 BKN005=
METAR LOWW 211820Z 14013KT CAVOK 10/08 Q1011 NOSIG=
METAR LZIB 211800Z 12010KT 9999 FEW013 10/08 Q1012 NOSIG=
METAR LZKZ 211800Z 14004KT 100V170 9999 -RA BKN039 BKN050 11/08 Q1017=
METAR LZMC 211800Z 14012G22KT 9999 FEW020 BKN130 11/08 Q1012=
METAR LZPP 211800Z 13017KT 9999 SCT040 11/08 Q1013=
METAR LZSL 211800Z VRB03KT 9999 SCT034 10/07 Q1016=
METAR LZTT 211800Z VRB02KT 9999 FEW005 BKN016 08/06 Q1016=
METAR LZZI 211800Z 19003KT 100V240 9999 BKN043 11/06 Q1014=